National Weather Service Raw Text Product

Displaying AFOS PIL: TAFALO Received: 2018-06-14 11:27 UTC


405 
FTUS43 KDMX 141127
TAFALO
TAF
KALO 141127Z 1412/1512 13006KT P6SM SCT070 BKN150
     FM141330 14010KT P6SM -SHRA SCT035 BKN070
      TEMPO 1414/1416 4SM TSRA BR BKN030CB
     FM141700 15014G21KT P6SM BKN110
     FM150100 14013KT P6SM BKN150
     FM150600 15012KT P6SM BKN250 WS020/20040KT=